CST,Max TemperatureF,Mean TemperatureF,Min TemperatureF,Max Dew PointF,MeanDew PointF,Min DewpointF,Max Humidity, Mean Humidity, Min Humidity, Max Sea Level PressureIn, Mean Sea Level PressureIn, Min Sea Level PressureIn, Max VisibilityMiles, Mean VisibilityMiles, Min VisibilityMiles, Max Wind SpeedMPH, Mean Wind SpeedMPH, Max Gust SpeedMPH,PrecipitationIn, CloudCover, Events, WindDirDegrees
2012-11-1,86,66,45,43,41,39,85,49,21,30.03,29.95,29.87,10,10,10,14,5,20,0.00,0,,209
2012-11-2,86,66,47,56,47,40,78,52,27,29.94,29.86,29.78,10,10,10,18,7,26,0.00,0,,173
2012-11-3,68,58,47,43,38,35,67,51,30,30.17,30.09,29.92,10,10,10,21,15,30,0.00,0,,28
2012-11-4,69,54,40,37,35,34,78,53,29,30.21,30.14,30.05,10,9,1,8,5,,0.00,1,,18
2012-11-5,71,58,44,38,35,32,78,47,24,30.14,30.10,30.08,10,10,7,20,5,25,0.00,1,,9
2012-11-6,80,59,38,39,36,33,81,53,22,30.15,30.12,30.04,10,10,7,14,3,,0.00,0,,360
2012-11-7,75,56,37,39,36,33,88,50,22,30.32,30.10,29.98,10,10,10,15,5,26,0.00,0,,142
2012-11-8,82,65,48,54,48,36,67,49,33,29.97,29.87,29.78,10,10,10,22,13,25,0.00,0,,158
2012-11-9,85,70,55,58,54,50,87,58,30,29.87,29.80,29.72,10,10,10,24,12,31,0.00,0,,162
2012-11-10,82,70,58,59,57,53,87,64,43,29.83,29.73,29.62,10,10,10,33,17,40,0.04,2,,154
2012-11-11,71,52,34,59,47,25,100,75,53,30.33,29.86,29.67,10,9,3,25,14,38,0.45,6,Rain-Thunderstorm,332
2012-11-12,52,40,29,32,26,23,79,59,34,30.53,30.46,30.35,10,10,10,8,5,,0.00,0,,262
2012-11-13,58,42,27,29,24,18,84,57,22,30.48,30.39,30.27,10,10,10,18,6,,0.00,1,,136
2012-11-14,65,47,29,28,26,24,85,55,23,30.39,30.31,30.23,10,10,10,12,5,,0.00,0,,153
2012-11-15,64,48,33,44,35,26,82,65,47,30.34,30.24,30.17,10,10,10,12,7,,0.00,0,,126
2012-11-16,63,49,35,38,34,31,86,61,34,30.42,30.35,30.30,10,10,10,10,7,,0.00,1,,94
2012-11-17,67,51,35,37,32,28,85,54,31,30.37,30.28,30.21,10,10,10,18,9,22,0.00,0,,135
2012-11-18,70,58,46,55,41,29,90,56,39,30.19,30.12,30.06,10,10,10,25,13,31,0.00,6,Rain,156
2012-11-19,72,61,50,54,51,47,99,78,44,30.12,30.09,30.04,10,10,10,12,7,,0.00,1,,138
2012-11-20,76,60,44,55,49,44,100,78,36,30.24,30.17,30.12,10,10,6,8,3,,0.00,0,,79
2012-11-21,77,58,40,52,46,40,99,67,26,30.23,30.13,30.00,10,10,4,21,5,24,0.00,0,,158
2012-11-22,81,66,51,52,46,32,90,55,31,30.18,29.98,29.86,10,10,10,29,10,38,0.01,0,,152
2012-11-23,58,46,34,36,26,21,68,44,24,30.54,30.43,30.22,10,10,10,29,19,39,0.00,0,,22
2012-11-24,63,45,27,27,24,21,84,49,21,30.44,30.22,29.98,10,10,10,22,6,25,0.00,0,,174
2012-11-25,64,48,33,36,31,23,79,56,34,29.96,29.86,29.81,10,10,10,12,7,,0.00,0,,129
2012-11-26,58,48,37,35,30,21,71,54,36,30.40,30.09,29.80,10,10,10,28,16,33,0.00,0,,17
2012-11-27,52,40,27,28,25,22,86,62,35,30.60,30.40,30.30,10,10,10,13,8,,0.00,0,,114
2012-11-28,68,48,28,40,33,24,90,61,30,30.34,30.25,30.13,10,10,10,18,9,,0.00,0,,137
2012-11-29,71,54,37,46,42,35,93,68,38,30.13,30.04,29.96,10,10,10,22,11,26,0.00,0,Rain,136
2012-11-30,71,55,39,55,43,33,100,88,27,30.03,29.99,29.91,10,6,0,14,7,,0.00,0,Fog,120